This is the latest recevied weather packets stored in our database for station/object JO1YDG-13. If no packets are shown the sender has not sent any weather packets the latest 10 day(s).
| Time | Temp. | Humidity | Pressure | Rain* | Wind** | Luminosity | Snow |
|---|---|---|---|---|---|---|---|
| 1777637856 | 12.22° C | 87% | 967.7 hPa | 0 mm | - | - | - |
| 1777637555 | 12.22° C | 84% | 967.2 hPa | 0 mm | - | - | - |
| 1777637255 | 12.22° C | 86% | 967.2 hPa | 0.51 mm | - | - | - |
| 1777636955 | 12.22° C | 86% | 966.6 hPa | 1.02 mm | - | - | - |
| 1777636655 | 12.22° C | 86% | 966.5 hPa | 1.02 mm | - | - | - |
| 1777636355 | 12.22° C | 86% | 966.5 hPa | 1.02 mm | - | - | - |
| 1777635455 | 12.22° C | 85% | 965.7 hPa | 1.02 mm | - | - | - |
| 1777635155 | 12.78° C | 83% | 965.7 hPa | 1.02 mm | - | - | - |
| 1777634855 | 12.78° C | 80% | 965.7 hPa | 1.02 mm | - | - | - |
| 1777629367 | 15° C | 67% | 966.3 hPa | 1.02 mm | - | - | - |
| 1777629069 | 15° C | 72% | 966 hPa | 1.02 mm | - | - | - |
| 1777628768 | 15° C | 73% | 965.5 hPa | 0.76 mm | - | - | - |
| 1777628468 | 15.56° C | 71% | 965.5 hPa | 0.25 mm | - | - | - |
| 1777628168 | 16.11° C | 70% | 964.6 hPa | 1.27 mm | - | - | - |
| 1777627868 | 16.11° C | 77% | 964.6 hPa | 1.27 mm | - | - | - |
| 1777627567 | 16.11° C | 77% | 964.1 hPa | 1.52 mm | - | - | - |
| 1777627267 | 16.67° C | 69% | 964.1 hPa | 1.52 mm | - | - | - |
| 1777626967 | 16.67° C | 67% | 964.1 hPa | 1.52 mm | - | - | - |
| 1777626668 | 16.67° C | 70% | 963.3 hPa | 1.52 mm | - | - | - |
| 1777626368 | 17.22° C | 67% | 963.3 hPa | 1.52 mm | - | - | - |
| 1777626068 | 17.22° C | 67% | 963.6 hPa | 1.52 mm | - | - | - |
| 1777625769 | 17.22° C | 68% | 963.6 hPa | 1.52 mm | - | - | - |
| 1777625468 | 16.67° C | 75% | 963.8 hPa | 1.52 mm | - | - | - |
| 1777625168 | 16.67° C | 81% | 964.4 hPa | 1.52 mm | - | - | - |
| 1777624868 | 17.22° C | 82% | 964.4 hPa | 1.52 mm | - | - | - |
* Rain latest hour (hover to see other rain measurements)
** Current wind speed in m/s (hover to see current wind gust speed)